Time;durP1;ratioP1;P1;durP2;ratioP2;P2;SDS_P1;SDS_P2;PMS_P1;PMS_P2;Temp;Humidity;BMP_temperature;BMP_pressure;BME280_temperature;BME280_humidity;BME280_pressure;Samples;Min_cycle;Max_cycle;Signal;HPM_P1;HPM_P2
2021/10/20 00:00:35;;;;;;;20.63;11.53;;;7.20;89.60;;;;;;5022848;28;20611;-71
2021/10/20 00:03:01;;;;;;;19.70;12.00;;;7.20;89.60;;;;;;5026853;28;20190;-72
2021/10/20 00:05:26;;;;;;;23.23;11.40;;;7.10;90.00;;;;;;5024339;28;20184;-72
2021/10/20 00:07:52;;;;;;;17.13;10.17;;;7.10;90.20;;;;;;5026501;28;20216;-72
2021/10/20 00:10:20;;;;;;;14.77;9.00;;;7.10;90.30;;;;;;5027239;28;20188;-72
2021/10/20 00:12:46;;;;;;;18.33;9.60;;;7.10;90.00;;;;;;5025209;28;20184;-72
2021/10/20 00:15:15;;;;;;;17.03;9.00;;;7.10;90.00;;;;;;5026310;28;20180;-72
2021/10/20 00:17:41;;;;;;;15.33;9.30;;;7.00;90.00;;;;;;5028475;28;20180;-72
2021/10/20 00:20:11;;;;;;;15.53;9.60;;;7.00;90.20;;;;;;5025334;28;20231;-71
2021/10/20 00:22:38;;;;;;;12.90;8.83;;;6.90;90.30;;;;;;5025602;28;20221;-72
2021/10/20 00:25:04;;;;;;;14.90;9.40;;;6.90;90.50;;;;;;5023835;28;20717;-72
2021/10/20 00:27:31;;;;;;;18.57;9.60;;;6.90;90.70;;;;;;5023794;28;20725;-72
2021/10/20 00:29:56;;;;;;;17.97;10.33;;;6.80;91.00;;;;;;5022240;28;20272;-72
2021/10/20 00:32:23;;;;;;;14.97;8.97;;;6.90;90.90;;;;;;5025553;28;20273;-71
2021/10/20 00:34:48;;;;;;;11.97;8.87;;;6.80;90.80;;;;;;5024889;28;20196;-71
2021/10/20 00:37:14;;;;;;;15.00;9.13;;;6.80;90.70;;;;;;5027032;28;20177;-71
2021/10/20 00:39:40;;;;;;;14.10;8.57;;;6.80;90.90;;;;;;5026032;28;20247;-71
2021/10/20 00:42:05;;;;;;;17.07;8.90;;;6.80;90.80;;;;;;5024897;28;20220;-72
2021/10/20 00:44:53;;;;;;;13.53;8.33;;;6.80;90.80;;;;;;5026253;28;20184;-71
2021/10/20 00:47:19;;;;;;;14.60;8.40;;;6.80;90.40;;;;;;5022803;28;20184;-71
2021/10/20 00:49:45;;;;;;;12.77;8.03;;;6.80;90.70;;;;;;5026106;28;20196;-71
2021/10/20 00:52:11;;;;;;;16.13;8.67;;;6.80;90.70;;;;;;5024213;28;20191;-72
2021/10/20 00:54:38;;;;;;;11.40;8.17;;;6.90;90.80;;;;;;5025301;28;20620;-71
2021/10/20 00:57:05;;;;;;;16.87;9.60;;;6.80;90.80;;;;;;5025808;28;20724;-71
2021/10/20 00:59:34;;;;;;;11.23;7.70;;;6.80;91.00;;;;;;5022998;28;20291;-72
2021/10/20 01:02:00;;;;;;;10.87;7.43;;;6.80;90.90;;;;;;5020859;28;20191;-72
2021/10/20 01:04:26;;;;;;;13.90;8.33;;;6.80;90.90;;;;;;5024028;28;20185;-72
2021/10/20 01:06:53;;;;;;;12.60;7.50;;;6.80;90.90;;;;;;5025268;28;20184;-72
2021/10/20 01:09:19;;;;;;;11.90;7.20;;;6.80;91.00;;;;;;5022281;28;20270;-72
2021/10/20 01:11:45;;;;;;;8.83;7.00;;;6.80;91.20;;;;;;5026748;28;20191;-72
2021/10/20 01:14:12;;;;;;;10.17;7.80;;;6.80;91.10;;;;;;5022314;28;20206;-72
2021/10/20 01:16:39;;;;;;;9.33;7.07;;;6.70;91.30;;;;;;5024821;28;20191;-72
2021/10/20 01:19:06;;;;;;;9.40;7.40;;;6.70;91.10;;;;;;5024909;28;20194;-72
2021/10/20 01:21:32;;;;;;;11.37;7.87;;;6.70;91.20;;;;;;5025756;28;20183;-72
2021/10/20 01:23:59;;;;;;;11.93;7.97;;;6.70;91.30;;;;;;5022359;28;20184;-72
2021/10/20 01:26:26;;;;;;;10.00;6.63;;;6.60;91.50;;;;;;5024603;28;20642;-72
2021/10/20 01:28:52;;;;;;;11.63;7.57;;;6.50;91.70;;;;;;5020266;28;20270;-72
2021/10/20 01:31:18;;;;;;;14.70;7.83;;;6.50;91.60;;;;;;5023257;28;20216;-71
2021/10/20 01:33:43;;;;;;;11.30;7.40;;;6.50;92.10;;;;;;5021691;28;20192;-71
2021/10/20 01:36:10;;;;;;;12.57;8.23;;;6.40;92.00;;;;;;5024198;28;20192;-72
2021/10/20 01:38:35;;;;;;;12.57;7.53;;;6.40;91.70;;;;;;5026186;28;20188;-71
2021/10/20 01:41:01;;;;;;;10.60;7.37;;;6.40;91.60;;;;;;5026253;28;20216;-72
2021/10/20 01:43:53;;;;;;;15.23;8.07;;;6.40;91.80;;;;;;5029138;28;20191;-72
2021/10/20 01:46:21;;;;;;;13.13;8.20;;;6.40;91.40;;;;;;5030794;28;20199;-72
2021/10/20 01:48:47;;;;;;;11.07;7.77;;;6.40;91.50;;;;;;5031838;28;20184;-72
2021/10/20 01:51:15;;;;;;;11.77;8.00;;;6.40;91.20;;;;;;5031859;28;20273;-72
2021/10/20 01:53:43;;;;;;;12.47;7.80;;;6.40;91.20;;;;;;5030951;28;20662;-71
2021/10/20 01:56:11;;;;;;;12.97;7.50;;;6.40;91.20;;;;;;5026724;28;20278;-72
2021/10/20 01:58:37;;;;;;;13.20;8.60;;;6.40;91.20;;;;;;5025788;28;20227;-72
2021/10/20 02:01:07;;;;;;;14.77;9.37;;;6.40;91.30;;;;;;5025051;28;20637;-72
2021/10/20 02:03:35;;;;;;;16.17;8.80;;;6.30;91.40;;;;;;5028839;28;20727;-72
2021/10/20 02:06:06;;;;;;;14.37;9.10;;;6.40;91.50;;;;;;5030701;28;20203;-72
2021/10/20 02:08:32;;;;;;;16.53;10.20;;;6.30;91.30;;;;;;5027119;28;21048;-71
2021/10/20 02:10:58;;;;;;;16.13;9.03;;;6.30;91.20;;;;;;5030825;28;20215;-73
2021/10/20 02:13:24;;;;;;;13.30;9.23;;;6.30;91.20;;;;;;5030887;28;20725;-72
2021/10/20 02:15:50;;;;;;;14.07;9.03;;;6.30;91.20;;;;;;5024471;28;20827;-72
2021/10/20 02:18:16;;;;;;;13.53;8.73;;;6.20;91.30;;;;;;5029085;28;20188;-72
2021/10/20 02:20:42;;;;;;;17.87;10.27;;;6.20;91.40;;;;;;5030886;28;20220;-72
2021/10/20 02:23:08;;;;;;;16.60;9.07;;;6.20;91.50;;;;;;5030140;28;20616;-72
2021/10/20 02:25:34;;;;;;;15.30;10.10;;;6.20;91.50;;;;;;5030075;28;20184;-73
2021/10/20 02:27:59;;;;;;;18.03;9.93;;;6.20;91.50;;;;;;5029714;28;20250;-72
2021/10/20 02:30:25;;;;;;;12.53;9.73;;;6.10;91.40;;;;;;5028159;28;20188;-72
2021/10/20 02:32:52;;;;;;;12.23;8.50;;;6.10;91.30;;;;;;5028962;28;20180;-72
2021/10/20 02:35:18;;;;;;;16.00;9.33;;;6.10;91.10;;;;;;5029524;28;20291;-72
2021/10/20 02:37:45;;;;;;;17.50;10.20;;;6.10;91.10;;;;;;5030594;28;20255;-72
2021/10/20 02:40:12;;;;;;;17.30;9.80;;;6.10;91.10;;;;;;5030316;28;20771;-72
2021/10/20 02:42:39;;;;;;;15.90;9.23;;;6.10;91.40;;;;;;5031065;28;20578;-72
2021/10/20 02:45:06;;;;;;;17.97;10.00;;;6.00;91.40;;;;;;5029173;28;20219;-72
2021/10/20 02:47:32;;;;;;;17.53;9.67;;;6.00;91.30;;;;;;5029656;28;20246;-72
2021/10/20 02:49:57;;;;;;;17.10;10.33;;;6.00;91.50;;;;;;5028499;28;20184;-72
2021/10/20 02:52:23;;;;;;;15.67;9.50;;;6.00;91.60;;;;;;5027569;28;20188;-72
2021/10/20 02:54:50;;;;;;;15.77;9.57;;;5.90;91.50;;;;;;5025113;28;20176;-73
2021/10/20 02:57:15;;;;;;;16.07;10.77;;;6.00;91.90;;;;;;5026524;28;20180;-73
2021/10/20 02:59:41;;;;;;;18.93;10.13;;;5.90;91.90;;;;;;5026467;28;20210;-72
2021/10/20 03:02:08;;;;;;;14.67;9.70;;;5.90;92.10;;;;;;5025249;28;20188;-72
2021/10/20 03:04:34;;;;;;;17.23;10.00;;;5.90;92.30;;;;;;5027284;28;20176;-72
2021/10/20 03:07:00;;;;;;;18.80;10.10;;;5.80;92.50;;;;;;5028568;28;20279;-72
2021/10/20 03:09:25;;;;;;;18.00;10.23;;;5.80;92.70;;;;;;5026698;28;20203;-72
2021/10/20 03:11:51;;;;;;;13.23;8.80;;;5.80;92.50;;;;;;5025373;28;20616;-72
2021/10/20 03:14:17;;;;;;;22.03;10.67;;;5.80;92.60;;;;;;5023913;28;20199;-72
2021/10/20 03:16:42;;;;;;;19.70;10.27;;;5.70;92.60;;;;;;5027508;28;20173;-72
2021/10/20 03:19:08;;;;;;;14.50;9.87;;;5.70;92.60;;;;;;5024222;28;20753;-72
2021/10/20 03:21:34;;;;;;;15.63;9.77;;;5.70;92.60;;;;;;5027765;28;20690;-72
2021/10/20 03:23:59;;;;;;;15.30;9.07;;;5.70;92.80;;;;;;5026388;28;20550;-72
2021/10/20 03:26:25;;;;;;;18.33;9.43;;;5.70;92.70;;;;;;5024366;28;20228;-71
2021/10/20 03:28:51;;;;;;;11.73;8.17;;;5.70;92.70;;;;;;5026024;28;20181;-72
2021/10/20 03:31:20;;;;;;;18.30;9.57;;;5.70;92.90;;;;;;5024053;28;20564;-71
2021/10/20 03:33:45;;;;;;;13.63;9.17;;;5.70;92.80;;;;;;5024715;28;20207;-71
2021/10/20 03:36:11;;;;;;;15.57;8.80;;;5.70;92.80;;;;;;5024571;28;20657;-71
2021/10/20 03:38:37;;;;;;;16.63;8.63;;;5.70;92.80;;;;;;5025138;28;20180;-71
2021/10/20 03:41:03;;;;;;;13.63;8.87;;;5.70;92.90;;;;;;5025590;28;20227;-72
2021/10/20 03:43:30;;;;;;;14.83;9.53;;;5.70;93.10;;;;;;5022951;28;20189;-72
2021/10/20 03:45:56;;;;;;;15.30;9.23;;;5.60;93.10;;;;;;5021817;28;20188;-71
2021/10/20 03:48:22;;;;;;;13.57;8.87;;;5.60;93.20;;;;;;5026595;28;20347;-71
2021/10/20 03:50:48;;;;;;;17.53;10.03;;;5.60;93.30;;;;;;5027030;28;20184;-71
2021/10/20 03:53:13;;;;;;;20.67;9.93;;;5.60;93.40;;;;;;5026154;28;20188;-71
2021/10/20 03:55:39;;;;;;;15.97;9.23;;;5.50;93.40;;;;;;5027108;28;20180;-71
2021/10/20 03:58:05;;;;;;;13.67;9.53;;;5.50;93.60;;;;;;5026597;28;20189;-71
2021/10/20 04:00:31;;;;;;;12.77;8.70;;;5.50;93.30;;;;;;5025291;28;20626;-71
2021/10/20 04:02:57;;;;;;;14.77;9.37;;;5.50;93.30;;;;;;5026206;28;20628;-71
2021/10/20 04:05:22;;;;;;;17.77;10.47;;;5.50;93.70;;;;;;5025345;28;20267;-71
2021/10/20 04:07:50;;;;;;;16.57;9.20;;;5.50;93.80;;;;;;5024552;28;20517;-71
2021/10/20 04:10:26;;;;;;;17.20;9.30;;;5.40;93.70;;;;;;5024806;28;20192;-72
2021/10/20 04:12:53;;;;;;;12.83;8.27;;;5.40;93.80;;;;;;5022402;28;20666;-72
2021/10/20 04:15:21;;;;;;;15.10;8.80;;;5.40;93.90;;;;;;5023821;28;20194;-72
2021/10/20 04:17:47;;;;;;;13.73;8.80;;;5.40;93.80;;;;;;5023599;28;20176;-71
2021/10/20 04:20:15;;;;;;;13.27;8.70;;;5.40;93.60;;;;;;5023781;28;20212;-71
2021/10/20 04:22:42;;;;;;;11.50;8.20;;;5.40;93.60;;;;;;5025974;28;20191;-71
2021/10/20 04:25:09;;;;;;;10.17;7.13;;;5.40;93.40;;;;;;5027152;28;20184;-71
2021/10/20 04:27:35;;;;;;;12.70;8.47;;;5.40;93.40;;;;;;5022882;28;20519;-71
2021/10/20 04:30:01;;;;;;;17.73;9.43;;;5.40;93.40;;;;;;5025412;28;20185;-72
2021/10/20 04:32:27;;;;;;;14.07;8.43;;;5.30;93.50;;;;;;5025388;28;20184;-70
2021/10/20 04:34:53;;;;;;;13.33;8.37;;;5.30;93.50;;;;;;5021075;28;20200;-70
2021/10/20 04:37:24;;;;;;;17.40;8.67;;;5.30;93.50;;;;;;5021642;28;20562;-69
2021/10/20 04:39:56;;;;;;;18.77;8.27;;;5.20;93.60;;;;;;5023731;28;20208;-70
2021/10/20 04:42:23;;;;;;;10.93;7.97;;;5.20;93.60;;;;;;5026175;28;20263;-69
2021/10/20 04:44:49;;;;;;;15.77;7.87;;;5.20;93.80;;;;;;5025799;28;20230;-69
2021/10/20 04:47:15;;;;;;;14.20;7.50;;;5.20;94.00;;;;;;5020684;28;20192;-70
2021/10/20 04:49:42;;;;;;;10.97;7.37;;;5.20;93.90;;;;;;5023890;28;20184;-70
2021/10/20 04:52:08;;;;;;;10.57;7.13;;;5.20;93.90;;;;;;5025245;28;20179;-70
2021/10/20 04:54:33;;;;;;;11.13;8.63;;;5.10;93.90;;;;;;5023453;28;20195;-70
2021/10/20 04:56:59;;;;;;;6.97;5.07;;;;;;;;;;5019940;28;21927;-70
2021/10/20 04:59:27;;;;;;;8.33;4.97;;;5.10;93.90;;;;;;5021404;28;20690;-71
2021/10/20 05:01:53;;;;;;;5.00;4.53;;;5.10;93.90;;;;;;5025854;28;20573;-72
2021/10/20 05:04:19;;;;;;;13.47;7.53;;;5.10;93.90;;;;;;5024399;28;20188;-75
2021/10/20 05:06:44;;;;;;;13.70;7.03;;;5.10;94.10;;;;;;5022806;28;20625;-75
2021/10/20 05:09:10;;;;;;;9.97;7.53;;;5.10;94.20;;;;;;5026434;28;20662;-75
2021/10/20 05:11:36;;;;;;;6.17;5.57;;;;;;;;;;5026099;28;20559;-74
2021/10/20 05:14:02;;;;;;;13.73;7.10;;;5.00;94.70;;;;;;5026577;28;20198;-75
2021/10/20 05:16:28;;;;;;;9.37;7.17;;;5.10;94.70;;;;;;5024405;28;20188;-74
2021/10/20 05:18:53;;;;;;;8.40;6.60;;;5.10;94.80;;;;;;5024572;28;20271;-77
2021/10/20 05:21:19;;;;;;;11.40;6.97;;;5.10;94.70;;;;;;5025221;28;20184;-76
2021/10/20 05:23:49;;;;;;;7.60;6.07;;;5.10;94.70;;;;;;5026413;28;20610;-76
2021/10/20 05:26:16;;;;;;;16.73;6.80;;;5.10;94.80;;;;;;5022801;28;20268;-75
2021/10/20 05:28:41;;;;;;;11.10;7.40;;;5.10;94.80;;;;;;5025174;28;20194;-75
2021/10/20 05:31:07;;;;;;;8.13;6.10;;;5.20;94.70;;;;;;5024067;28;20992;-74
2021/10/20 05:33:33;;;;;;;10.30;6.77;;;5.20;94.70;;;;;;5023328;28;20184;-75
2021/10/20 05:35:58;;;;;;;8.63;6.00;;;5.30;94.60;;;;;;5022292;28;20208;-74
2021/10/20 05:38:24;;;;;;;10.13;6.43;;;5.30;94.70;;;;;;5022729;28;20552;-75
2021/10/20 05:40:50;;;;;;;12.67;7.17;;;5.40;94.70;;;;;;5021247;28;21127;-75
2021/10/20 05:43:16;;;;;;;12.30;6.10;;;5.40;94.70;;;;;;5023467;28;20184;-74
2021/10/20 05:45:41;;;;;;;12.60;7.50;;;5.50;94.60;;;;;;5021991;28;20830;-75
2021/10/20 05:48:07;;;;;;;14.60;7.43;;;5.50;94.60;;;;;;5023578;28;20241;-73
2021/10/20 05:50:33;;;;;;;8.67;6.23;;;5.60;94.50;;;;;;5021763;28;20227;-73
2021/10/20 05:52:59;;;;;;;11.47;6.67;;;5.60;94.50;;;;;;5023638;28;20187;-73
2021/10/20 05:55:25;;;;;;;15.53;8.13;;;5.70;94.50;;;;;;5023531;28;20271;-74
2021/10/20 05:57:50;;;;;;;10.07;7.20;;;5.70;94.60;;;;;;5023106;28;20188;-74
2021/10/20 06:00:16;;;;;;;10.90;7.53;;;5.80;94.40;;;;;;5023933;28;20180;-74
2021/10/20 06:02:42;;;;;;;9.07;7.13;;;5.80;94.40;;;;;;5026006;28;20177;-74
2021/10/20 06:05:09;;;;;;;14.60;8.53;;;5.90;94.40;;;;;;5025373;28;20184;-74
2021/10/20 06:07:45;;;;;;;12.03;7.20;;;5.90;94.50;;;;;;5025125;28;20185;-74
2021/10/20 06:10:12;;;;;;;16.37;8.63;;;6.00;94.20;;;;;;5022840;28;20212;-73
2021/10/20 06:12:39;;;;;;;13.50;8.03;;;6.10;94.10;;;;;;5027164;28;20184;-73
2021/10/20 06:15:06;;;;;;;11.03;7.67;;;6.10;94.10;;;;;;5024409;28;20191;-74
2021/10/20 06:17:36;;;;;;;13.13;7.80;;;6.20;94.10;;;;;;5025694;28;20183;-74
2021/10/20 06:20:05;;;;;;;10.73;7.17;;;6.30;94.00;;;;;;5025560;28;20643;-74
2021/10/20 06:22:31;;;;;;;12.53;8.07;;;6.30;93.90;;;;;;5026225;28;20695;-74
2021/10/20 06:24:57;;;;;;;11.50;8.43;;;6.40;93.90;;;;;;5023444;28;20215;-73
2021/10/20 06:27:23;;;;;;;11.73;7.00;;;6.50;93.90;;;;;;5020501;28;20216;-73
2021/10/20 06:29:48;;;;;;;15.83;8.67;;;6.60;93.70;;;;;;5022121;28;20216;-74
2021/10/20 06:32:14;;;;;;;11.03;7.20;;;6.70;93.60;;;;;;5025461;28;20180;-74
2021/10/20 06:34:42;;;;;;;12.17;6.63;;;6.80;93.60;;;;;;5023060;28;20637;-75
2021/10/20 06:37:08;;;;;;;10.37;7.13;;;6.90;93.80;;;;;;5026369;28;20275;-74
2021/10/20 06:39:34;;;;;;;11.23;7.57;;;7.00;93.80;;;;;;5023283;28;20268;-75
2021/10/20 06:41:59;;;;;;;10.57;7.33;;;7.10;93.70;;;;;;5026000;28;20182;-75
2021/10/20 06:44:26;;;;;;;10.43;7.97;;;7.20;93.60;;;;;;5026198;28;20180;-75
2021/10/20 06:46:52;;;;;;;14.83;7.60;;;7.20;93.70;;;;;;5025576;28;20199;-73
2021/10/20 06:49:18;;;;;;;13.27;7.93;;;7.30;93.60;;;;;;5026601;28;20192;-75
2021/10/20 06:51:45;;;;;;;19.57;8.23;;;7.40;93.60;;;;;;5027040;28;20184;-75
2021/10/20 06:54:18;;;;;;;14.80;7.90;;;7.60;93.60;;;;;;5025674;28;20180;-74
2021/10/20 06:56:51;;;;;;;12.50;8.50;;;7.70;93.60;;;;;;5026032;28;20640;-74
2021/10/20 06:59:18;;;;;;;14.77;8.33;;;8.20;93.20;;;;;;5026217;28;20237;-75
2021/10/20 07:01:44;;;;;;;12.57;8.47;;;8.20;92.80;;;;;;5025721;28;20180;-75
2021/10/20 07:04:11;;;;;;;12.13;8.77;;;8.90;92.50;;;;;;5028542;28;20196;-73
2021/10/20 07:06:37;;;;;;;11.30;8.90;;;9.50;90.60;;;;;;5026219;28;20184;-73
2021/10/20 07:09:04;;;;;;;15.90;8.90;;;10.10;91.20;;;;;;5027641;28;20266;-74
2021/10/20 07:11:30;;;;;;;14.20;8.67;;;11.00;90.10;;;;;;5026553;28;20223;-73
2021/10/20 07:13:56;;;;;;;21.53;9.60;;;11.90;89.10;;;;;;5027220;28;20573;-74
2021/10/20 07:16:22;;;;;;;14.65;10.32;;;12.70;86.40;;;;;;5026414;28;20181;-75
2021/10/20 07:18:49;;;;;;;16.67;10.13;;;;;;;;;;5026930;28;20667;-75
2021/10/20 07:21:15;;;;;;;16.85;9.70;;;14.30;81.00;;;;;;5023552;28;20180;-76
2021/10/20 07:23:40;;;;;;;18.63;10.82;;;15.00;79.20;;;;;;5025708;28;20176;-75
2021/10/20 07:26:06;;;;;;;22.33;11.50;;;;;;;;;;5026301;28;20183;-73
2021/10/20 07:28:32;;;;;;;19.55;11.13;;;16.20;73.40;;;;;;5028040;28;20184;-74
2021/10/20 07:30:58;;;;;;;20.05;12.77;;;16.60;71.90;;;;;;5026967;28;20222;-75
2021/10/20 07:33:24;;;;;;;20.75;12.23;;;17.10;72.00;;;;;;5024834;28;20181;-75
2021/10/20 07:35:49;;;;;;;24.73;13.55;;;17.60;70.00;;;;;;5025112;28;20184;-75
2021/10/20 07:38:16;;;;;;;23.75;13.25;;;18.10;69.30;;;;;;5025954;28;20176;-74
2021/10/20 07:40:41;;;;;;;21.23;12.25;;;18.70;69.20;;;;;;5025377;28;20245;-74
2021/10/20 07:43:08;;;;;;;24.85;14.63;;;19.20;66.50;;;;;;5024967;28;20185;-74
2021/10/20 07:45:35;;;;;;;23.95;13.32;;;19.70;66.80;;;;;;5025159;28;20721;-76
2021/10/20 07:48:01;;;;;;;21.23;14.40;;;20.00;64.90;;;;;;5026645;28;20176;-75
2021/10/20 07:50:27;;;;;;;25.40;14.35;;;20.20;63.30;;;;;;5026031;28;20694;-76
2021/10/20 07:52:52;;;;;;;22.35;14.90;;;20.50;62.90;;;;;;5027704;28;20254;-75
2021/10/20 07:55:21;;;;;;;20.73;12.85;;;20.70;63.20;;;;;;5026244;28;20645;-75
2021/10/20 07:57:48;;;;;;;22.98;13.18;;;20.80;63.40;;;;;;5025374;28;20180;-74
2021/10/20 08:00:15;;;;;;;19.33;13.43;;;21.00;62.40;;;;;;5027978;28;20180;-76
2021/10/20 08:02:41;;;;;;;21.23;13.57;;;21.20;61.80;;;;;;5028405;28;20650;-75
2021/10/20 08:05:12;;;;;;;20.50;12.63;;;21.60;61.30;;;;;;5022912;28;20184;-76
2021/10/20 08:07:44;;;;;;;22.80;13.45;;;22.00;60.70;;;;;;5023386;28;20537;-76
2021/10/20 08:10:11;;;;;;;23.38;14.48;;;22.30;59.80;;;;;;5025089;28;20200;-77
2021/10/20 08:12:36;;;;;;;19.00;13.57;;;22.40;60.40;;;;;;5024184;28;20189;-76
2021/10/20 08:15:02;;;;;;;17.95;12.98;;;22.70;60.00;;;;;;5025555;28;20605;-76
2021/10/20 08:17:28;;;;;;;18.85;13.50;;;22.80;57.80;;;;;;5025406;28;20187;-76
2021/10/20 08:19:54;;;;;;;21.02;13.90;;;23.00;58.00;;;;;;5025694;28;20733;-76
2021/10/20 08:22:20;;;;;;;21.13;15.10;;;23.30;56.80;;;;;;5025502;28;20200;-76
2021/10/20 08:24:45;;;;;;;20.73;14.32;;;23.40;57.10;;;;;;5025928;28;20760;-76
2021/10/20 08:27:11;;;;;;;23.08;13.85;;;23.70;57.80;;;;;;5024704;28;20210;-76
2021/10/20 08:29:37;;;;;;;15.55;12.85;;;24.00;57.10;;;;;;5024892;28;20216;-76
2021/10/20 08:32:08;;;;;;;17.10;13.63;;;24.10;56.00;;;;;;5024159;28;20203;-76
2021/10/20 08:34:35;;;;;;;17.88;12.88;;;24.40;56.60;;;;;;5025442;28;20203;-76
2021/10/20 08:37:01;;;;;;;18.85;13.00;;;24.60;56.10;;;;;;5025288;28;20189;-76
2021/10/20 08:39:27;;;;;;;18.50;12.23;;;;;;;;;;5024382;28;20196;-76
2021/10/20 08:41:54;;;;;;;18.70;13.93;;;25.00;55.90;;;;;;5023726;28;20180;-76
2021/10/20 08:44:22;;;;;;;24.40;14.88;;;25.20;54.00;;;;;;5023779;28;20701;-76
2021/10/20 08:46:48;;;;;;;17.27;13.25;;;25.30;56.30;;;;;;5025307;28;20225;-76
2021/10/20 08:49:16;;;;;;;18.90;13.38;;;25.70;52.70;;;;;;5022447;28;20184;-73
2021/10/20 08:51:42;;;;;;;18.88;14.20;;;25.90;51.60;;;;;;5022543;28;20181;-76
2021/10/20 08:54:08;;;;;;;27.77;15.55;;;25.90;55.10;;;;;;5023686;28;20188;-75
2021/10/20 08:56:34;;;;;;;20.00;14.40;;;26.30;55.20;;;;;;5025253;28;20184;-75
2021/10/20 08:59:00;;;;;;;23.80;14.50;;;26.50;54.10;;;;;;5025155;28;20317;-75
2021/10/20 09:01:26;;;;;;;20.42;14.13;;;26.90;54.30;;;;;;5023662;28;20191;-75
2021/10/20 09:03:52;;;;;;;22.10;15.52;;;27.30;53.70;;;;;;5024258;28;20188;-76
2021/10/20 09:06:17;;;;;;;16.45;13.73;;;27.70;49.90;;;;;;5024358;28;20189;-76
2021/10/20 09:08:44;;;;;;;18.65;13.82;;;28.10;53.20;;;;;;5025258;28;20267;-75
2021/10/20 09:11:39;;;;;;;19.17;13.82;;;28.50;51.30;;;;;;5023547;28;20220;-76
2021/10/20 09:14:18;;;;;;;18.88;14.32;;;28.80;48.30;;;;;;5024571;28;20200;-76
2021/10/20 09:16:45;;;;;;;24.75;14.23;;;28.90;49.50;;;;;;5024627;28;20633;-76
2021/10/20 09:19:21;;;;;;;19.67;14.18;;;29.10;52.30;;;;;;5025530;28;20184;-76
2021/10/20 09:21:59;;;;;;;25.98;14.45;;;29.40;51.80;;;;;;5023574;28;20242;-76
2021/10/20 09:24:34;;;;;;;20.05;13.82;;;29.80;51.10;;;;;;5025349;28;20298;-76
2021/10/20 09:27:01;;;;;;;17.25;13.27;;;30.10;49.70;;;;;;5024004;28;20265;-76
2021/10/20 09:29:32;;;;;;;15.55;13.90;;;30.20;51.10;;;;;;5023564;28;20188;-76
2021/10/20 09:31:57;;;;;;;16.52;13.15;;;30.30;48.60;;;;;;5022205;28;20728;-76
2021/10/20 09:34:33;;;;;;;17.02;13.60;;;30.10;47.50;;;;;;5023577;28;20263;-77
2021/10/20 09:37:01;;;;;;;15.25;11.52;;;29.80;49.40;;;;;;5023222;28;20688;-76
2021/10/20 09:39:26;;;;;;;16.73;11.90;;;29.80;52.60;;;;;;5024048;28;20263;-77
2021/10/20 09:42:06;;;;;;;19.17;12.70;;;29.70;50.50;;;;;;5023855;28;20263;-77
2021/10/20 09:44:52;;;;;;;18.52;12.75;;;29.40;49.60;;;;;;5024964;28;20660;-75
2021/10/20 09:47:19;;;;;;;14.68;11.63;;;29.10;47.90;;;;;;5022791;28;20322;-76
2021/10/20 09:49:56;;;;;;;14.23;10.70;;;28.80;51.10;;;;;;5023433;28;20295;-76
2021/10/20 09:52:24;;;;;;;14.75;10.27;;;28.60;48.00;;;;;;5023586;28;20183;-76
2021/10/20 09:54:50;;;;;;;16.95;10.77;;;28.80;51.30;;;;;;5024541;28;20176;-76
2021/10/20 09:57:16;;;;;;;13.20;10.57;;;29.00;48.10;;;;;;5022411;28;20191;-76
2021/10/20 09:59:46;;;;;;;13.52;10.50;;;29.00;49.30;;;;;;5024834;28;20184;-76
2021/10/20 10:02:12;;;;;;;13.05;10.05;;;29.00;50.20;;;;;;5023579;28;20190;-76
2021/10/20 10:04:39;;;;;;;12.80;10.10;;;29.20;51.80;;;;;;5025710;28;20184;-76
2021/10/20 10:07:05;;;;;;;15.40;10.55;;;29.40;51.30;;;;;;5025081;28;20184;-76
2021/10/20 10:09:32;;;;;;;10.88;9.88;;;29.50;50.00;;;;;;5028248;28;20781;-76
2021/10/20 10:12:04;;;;;;;11.48;9.60;;;29.50;49.70;;;;;;5029927;28;20685;-77
2021/10/20 10:14:34;;;;;;;14.30;9.55;;;29.40;49.60;;;;;;5027991;28;21955;-77
2021/10/20 10:17:02;;;;;;;15.02;10.70;;;29.60;51.20;;;;;;5024658;28;20181;-75
2021/10/20 10:19:31;;;;;;;15.02;10.85;;;29.70;47.10;;;;;;5029594;28;20267;-76
2021/10/20 10:21:58;;;;;;;20.02;11.75;;;30.00;49.10;;;;;;5028319;28;20748;-77
2021/10/20 10:24:32;;;;;;;12.95;11.57;;;30.30;49.60;;;;;;5028790;28;20584;-75
2021/10/20 10:27:04;;;;;;;17.92;12.00;;;30.50;47.90;;;;;;5059880;28;20792;-76
2021/10/20 10:29:30;;;;;;;15.15;11.95;;;30.20;48.50;;;;;;5027231;28;20180;-76
2021/10/20 10:32:05;;;;;;;13.07;11.13;;;29.90;49.30;;;;;;5029217;28;20704;-77
2021/10/20 10:34:35;;;;;;;14.68;10.68;;;29.80;50.30;;;;;;5024944;28;20195;-77
2021/10/20 10:37:02;;;;;;;14.52;12.07;;;29.90;49.30;;;;;;5026628;28;20263;-76
2021/10/20 10:39:29;;;;;;;13.57;10.85;;;29.90;48.00;;;;;;5026316;28;20184;-77
2021/10/20 10:42:05;;;;;;;12.23;9.95;;;29.70;52.00;;;;;;5027760;28;20725;-77
2021/10/20 10:44:52;;;;;;;10.63;8.95;;;30.00;48.20;;;;;;5026994;28;20789;-77
2021/10/20 10:47:30;;;;;;;14.23;9.90;;;30.40;46.70;;;;;;5028270;28;20207;-77
2021/10/20 10:49:57;;;;;;;9.55;8.65;;;30.80;49.60;;;;;;5030659;28;20261;-77
2021/10/20 10:52:34;;;;;;;10.02;8.38;;;31.10;48.50;;;;;;5028846;28;20271;-77
2021/10/20 10:55:17;;;;;;;10.13;8.18;;;31.10;47.00;;;;;;5028111;28;20208;-76
2021/10/20 10:57:58;;;;;;;7.68;6.97;;;30.70;47.80;;;;;;5029407;28;20180;-76
2021/10/20 11:00:27;;;;;;;7.80;7.20;;;30.50;48.10;;;;;;5028519;28;20181;-77
2021/10/20 11:02:57;;;;;;;11.90;7.63;;;30.70;46.70;;;;;;5029913;28;20176;-77
2021/10/20 11:05:31;;;;;;;8.60;6.70;;;31.00;50.00;;;;;;5030076;28;20184;-77
2021/10/20 11:08:06;;;;;;;8.20;7.22;;;31.30;48.90;;;;;;5026258;28;20200;-77
2021/10/20 11:10:35;;;;;;;7.47;6.78;;;31.70;46.80;;;;;;5025786;28;20223;-77
2021/10/20 11:13:01;;;;;;;6.47;5.95;;;32.10;46.20;;;;;;5027564;28;20258;-76
2021/10/20 11:15:31;;;;;;;6.88;6.25;;;32.40;46.40;;;;;;5028538;28;20196;-77
2021/10/20 11:17:57;;;;;;;6.57;6.18;;;32.60;46.60;;;;;;5025413;28;20184;-77
2021/10/20 11:20:25;;;;;;;7.78;7.15;;;32.70;46.50;;;;;;5027571;28;20269;-77
2021/10/20 11:22:54;;;;;;;6.63;6.07;;;32.70;47.40;;;;;;5025455;28;20187;-77
2021/10/20 11:25:21;;;;;;;6.90;6.30;;;32.90;48.60;;;;;;5024567;28;20596;-77
2021/10/20 11:27:55;;;;;;;9.23;6.82;;;33.00;47.10;;;;;;5025542;28;20176;-76
2021/10/20 11:30:28;;;;;;;6.78;6.20;;;33.00;44.70;;;;;;5025475;28;20809;-77
2021/10/20 11:32:55;;;;;;;6.50;6.05;;;32.90;46.70;;;;;;5024721;28;20192;-75
2021/10/20 11:35:29;;;;;;;6.40;5.95;;;32.90;47.20;;;;;;5023688;28;20219;-77
2021/10/20 11:38:07;;;;;;;5.97;5.57;;;32.90;44.80;;;;;;5025834;28;20180;-76
2021/10/20 11:40:46;;;;;;;5.80;5.30;;;33.00;44.30;;;;;;5027022;28;20798;-76
2021/10/20 11:43:21;;;;;;;6.40;5.78;;;32.90;47.80;;;;;;5026936;28;20183;-76
2021/10/20 11:45:47;;;;;;;5.93;5.63;;;32.40;44.10;;;;;;5025417;28;20668;-76
2021/10/20 11:48:18;;;;;;;5.75;5.45;;;31.90;44.70;;;;;;5026538;28;20238;-76
2021/10/20 11:50:48;;;;;;;5.43;5.03;;;31.60;47.00;;;;;;5025852;28;20212;-76
2021/10/20 11:53:15;;;;;;;5.25;4.85;;;31.40;48.00;;;;;;5025877;28;20183;-76
2021/10/20 11:55:45;;;;;;;5.38;5.00;;;31.50;50.20;;;;;;5028028;28;20588;-76
2021/10/20 11:58:18;;;;;;;5.38;4.78;;;31.60;48.30;;;;;;5027087;28;20183;-77
2021/10/20 12:00:51;;;;;;;5.55;5.13;;;31.80;45.70;;;;;;5027551;28;20231;-76
2021/10/20 12:03:17;;;;;;;5.03;4.72;;;31.70;46.70;;;;;;5024263;28;20180;-77
2021/10/20 12:05:42;;;;;;;5.82;5.28;;;31.80;48.50;;;;;;5027211;28;20314;-76
2021/10/20 12:08:08;;;;;;;4.88;4.57;;;32.10;48.20;;;;;;5027152;28;20184;-76
2021/10/20 12:10:34;;;;;;;5.45;5.15;;;32.30;48.80;;;;;;5024061;28;20653;-76
2021/10/20 12:13:02;;;;;;;5.75;5.45;;;32.40;45.60;;;;;;5026004;28;20176;-76
2021/10/20 12:15:28;;;;;;;7.38;5.68;;;32.50;46.00;;;;;;5025464;28;20183;-76
2021/10/20 12:17:54;;;;;;;5.63;5.07;;;32.20;48.00;;;;;;5023812;28;20203;-76
2021/10/20 12:20:20;;;;;;;7.47;5.97;;;32.00;46.30;;;;;;5026320;28;20220;-76
2021/10/20 12:22:50;;;;;;;4.82;4.40;;;31.70;47.80;;;;;;5024475;28;20548;-76
2021/10/20 12:25:17;;;;;;;5.45;5.03;;;31.50;47.60;;;;;;5022783;28;20192;-76
2021/10/20 12:27:43;;;;;;;5.38;5.07;;;31.40;47.40;;;;;;5023918;28;20980;-76
2021/10/20 12:30:11;;;;;;;6.28;5.22;;;31.40;45.90;;;;;;5027217;28;20209;-76
2021/10/20 12:32:39;;;;;;;5.28;4.93;;;31.30;44.60;;;;;;5024472;28;20184;-76
2021/10/20 12:35:13;;;;;;;5.50;4.75;;;30.90;48.70;;;;;;5024847;28;20200;-76
2021/10/20 12:37:45;;;;;;;5.68;5.28;;;30.90;49.30;;;;;;5026202;28;20598;-76
2021/10/20 12:40:16;;;;;;;5.22;4.93;;;31.00;49.80;;;;;;5025204;28;20212;-76
2021/10/20 12:42:52;;;;;;;5.07;4.85;;;31.10;47.70;;;;;;5024896;28;20180;-76
2021/10/20 12:45:20;;;;;;;5.00;4.80;;;31.20;49.60;;;;;;5024935;28;20179;-76